createdAt,value
2022-11-15T00:02:47.476Z,35.97
2022-11-15T00:05:40.324Z,36.27
2022-11-15T00:08:37.870Z,35.80
2022-11-15T00:11:28.499Z,33.67
2022-11-15T00:14:21.986Z,32.73
2022-11-15T00:17:12.878Z,33.43
2022-11-15T00:20:00.959Z,34.00
2022-11-15T00:22:52.212Z,34.40
2022-11-15T00:25:45.158Z,32.80
2022-11-15T00:28:42.652Z,35.00
2022-11-15T00:31:31.075Z,30.90
2022-11-15T00:34:35.300Z,33.17
2022-11-15T00:37:30.444Z,34.90
2022-11-15T00:40:19.046Z,34.70
2022-11-15T00:43:13.428Z,35.53
2022-11-15T00:46:06.512Z,33.03
2022-11-15T00:48:55.362Z,34.00
2022-11-15T00:51:44.032Z,32.63
2022-11-15T00:54:38.972Z,36.00
2022-11-15T00:57:32.167Z,34.30
2022-11-15T01:00:24.105Z,36.10
2022-11-15T01:03:13.134Z,34.50
2022-11-15T01:06:04.964Z,34.83
2022-11-15T01:08:54.112Z,35.90
2022-11-15T01:11:43.072Z,34.57
2022-11-15T01:14:39.932Z,36.50
2022-11-15T01:17:33.583Z,34.63
2022-11-15T01:20:22.756Z,34.97
2022-11-15T01:23:11.702Z,37.10
2022-11-15T01:26:01.482Z,35.33
2022-11-15T01:28:55.302Z,36.80
2022-11-15T01:31:51.335Z,37.23
2022-11-15T01:34:55.004Z,36.17
2022-11-15T01:37:46.379Z,34.93
2022-11-15T01:40:36.515Z,37.07
2022-11-15T01:43:34.542Z,33.97
2022-11-15T01:46:46.274Z,33.50
2022-11-15T01:49:38.337Z,32.67
2022-11-15T01:52:30.725Z,33.50
2022-11-15T01:55:24.480Z,36.17
2022-11-15T01:58:21.120Z,33.63
2022-11-15T02:01:14.845Z,35.20
2022-11-15T02:04:09.248Z,36.30
2022-11-15T02:06:59.775Z,34.50
2022-11-15T02:09:55.194Z,34.00
2022-11-15T02:12:46.850Z,34.93
2022-11-15T02:15:42.180Z,31.87
2022-11-15T02:18:40.288Z,34.07
2022-11-15T02:21:39.180Z,31.17
2022-11-15T02:25:18.504Z,32.40
2022-11-15T02:28:34.463Z,32.60
2022-11-15T02:31:33.098Z,29.53
2022-11-15T02:34:31.007Z,31.50
2022-11-15T02:37:36.499Z,30.67
2022-11-15T02:40:32.590Z,30.27
2022-11-15T02:43:47.577Z,30.20
2022-11-15T02:47:02.710Z,29.40
2022-11-15T02:49:52.285Z,30.60
2022-11-15T02:52:40.069Z,29.93
2022-11-15T02:55:32.501Z,30.87
2022-11-15T02:59:04.793Z,33.00
2022-11-15T03:02:06.952Z,31.87
2022-11-15T03:05:02.183Z,31.03
2022-11-15T03:08:02.104Z,30.33
2022-11-15T03:11:07.481Z,33.90
2022-11-15T03:14:02.713Z,31.23
2022-11-15T03:17:00.631Z,33.20
2022-11-15T03:19:57.522Z,31.07
2022-11-15T03:22:48.570Z,30.90
2022-11-15T03:25:48.251Z,32.20
2022-11-15T03:28:51.166Z,31.23
2022-11-15T03:31:51.926Z,30.93
2022-11-15T03:35:00.284Z,30.73
2022-11-15T03:37:52.881Z,31.87
2022-11-15T03:40:45.733Z,31.40
2022-11-15T03:43:44.519Z,31.00
2022-11-15T03:46:39.490Z,30.90
2022-11-15T03:49:34.210Z,30.90
2022-11-15T03:52:37.816Z,28.93
2022-11-15T03:55:26.598Z,29.90
2022-11-15T03:58:23.577Z,30.37
2022-11-15T04:01:19.287Z,28.80
2022-11-15T04:04:08.353Z,30.10
2022-11-15T04:07:07.213Z,29.17
2022-11-15T04:10:10.505Z,30.90
2022-11-15T04:13:00.374Z,32.07
2022-11-15T04:15:51.586Z,30.47
2022-11-15T04:18:42.229Z,32.63
2022-11-15T04:21:49.575Z,33.17
2022-11-15T04:24:39.802Z,31.27
2022-11-15T04:27:34.966Z,33.73
2022-11-15T04:30:22.265Z,33.37
2022-11-15T04:33:11.203Z,33.87
2022-11-15T04:36:20.633Z,35.93
2022-11-15T04:39:09.723Z,34.50
2022-11-15T04:41:58.554Z,33.90
2022-11-15T04:44:54.976Z,33.97
2022-11-15T04:47:45.952Z,34.87
2022-11-15T04:50:39.696Z,36.40
2022-11-15T04:53:30.852Z,33.17
2022-11-15T04:56:28.662Z,35.87
2022-11-15T04:59:16.523Z,36.07
2022-11-15T05:02:23.456Z,34.33
2022-11-15T05:05:15.452Z,35.00
2022-11-15T05:08:03.464Z,34.80
2022-11-15T05:10:51.434Z,36.77
2022-11-15T05:13:44.625Z,37.00
2022-11-15T05:16:34.476Z,37.20
2022-11-15T05:19:37.877Z,36.60
2022-11-15T05:22:38.529Z,33.90
2022-11-15T05:25:30.968Z,35.50
2022-11-15T05:28:21.611Z,34.73
2022-11-15T05:31:11.813Z,33.57
2022-11-15T05:34:11.386Z,34.10
2022-11-15T05:37:03.027Z,33.60
2022-11-15T05:39:53.404Z,35.83
2022-11-15T05:42:47.082Z,34.47
2022-11-15T05:45:45.499Z,35.10
2022-11-15T05:48:36.994Z,33.90
2022-11-15T05:51:26.847Z,35.10
2022-11-15T05:54:22.209Z,38.83
2022-11-15T05:57:11.547Z,37.43
2022-11-15T06:00:01.147Z,36.00
2022-11-15T06:02:51.948Z,34.90
2022-11-15T06:05:41.284Z,34.60
2022-11-15T06:08:38.663Z,34.30
2022-11-15T06:11:32.118Z,32.10
2022-11-15T06:14:19.739Z,32.83
2022-11-15T06:17:11.538Z,31.10
2022-11-15T06:20:00.272Z,29.90
2022-11-15T06:22:55.389Z,30.67
2022-11-15T06:25:43.128Z,30.97
2022-11-15T06:28:37.315Z,32.80
2022-11-15T06:31:35.174Z,34.03
2022-11-15T06:34:25.708Z,35.50
2022-11-15T06:37:19.488Z,32.93
2022-11-15T06:40:20.982Z,32.50
2022-11-15T06:43:09.397Z,33.70
2022-11-15T06:46:05.105Z,35.53
2022-11-15T06:48:53.425Z,34.37
2022-11-15T06:51:43.693Z,35.37
2022-11-15T06:54:41.945Z,34.80
2022-11-15T06:57:32.075Z,35.10
2022-11-15T07:00:21.932Z,34.20
2022-11-15T07:03:10.194Z,34.60
2022-11-15T07:06:01.553Z,34.07
2022-11-15T07:08:54.178Z,36.90
2022-11-15T07:11:40.579Z,37.23
2022-11-15T07:14:27.186Z,39.07
2022-11-15T07:17:14.012Z,39.20
2022-11-15T07:20:02.013Z,38.40
2022-11-15T07:22:51.349Z,36.97
2022-11-15T07:25:37.785Z,36.20
2022-11-15T07:28:24.350Z,37.07
2022-11-15T07:31:11.373Z,36.90
2022-11-15T07:33:57.885Z,35.60
2022-11-15T07:36:45.958Z,36.10
2022-11-15T07:39:32.704Z,37.80
2022-11-15T07:42:36.394Z,38.67
2022-11-15T07:45:24.004Z,38.00
2022-11-15T07:48:10.685Z,38.17
2022-11-15T07:50:57.045Z,37.17
2022-11-15T07:53:48.152Z,36.07
2022-11-15T07:56:34.552Z,37.87
2022-11-15T07:59:21.544Z,37.47
2022-11-15T08:02:07.989Z,40.90
2022-11-15T08:04:54.412Z,39.53
2022-11-15T08:07:41.259Z,38.00
2022-11-15T08:10:29.656Z,41.20
2022-11-15T08:13:17.366Z,35.53
2022-11-15T08:16:06.505Z,39.30
2022-11-15T08:18:54.786Z,39.17
2022-11-15T08:21:41.266Z,40.27
2022-11-15T08:24:28.173Z,39.00
2022-11-15T08:27:16.873Z,38.93
2022-11-15T08:30:03.756Z,42.00
2022-11-15T08:32:54.117Z,41.10
2022-11-15T08:35:40.728Z,39.70
2022-11-15T08:38:27.171Z,37.77
2022-11-15T08:41:16.645Z,37.50
2022-11-15T08:44:04.569Z,36.77
2022-11-15T08:46:52.730Z,38.13
2022-11-15T08:49:39.421Z,36.10
2022-11-15T08:52:26.234Z,37.67
2022-11-15T08:55:12.557Z,36.70
2022-11-15T08:57:59.734Z,37.40
2022-11-15T09:00:47.515Z,38.33
2022-11-15T09:03:33.838Z,38.13
2022-11-15T09:06:20.688Z,38.40
2022-11-15T09:09:07.477Z,39.13
2022-11-15T09:11:58.034Z,38.60
2022-11-15T09:14:47.540Z,35.77
2022-11-15T09:17:35.589Z,39.07
2022-11-15T09:20:22.492Z,36.63
2022-11-15T09:23:09.173Z,36.63
2022-11-15T09:26:01.131Z,34.63
2022-11-15T09:28:47.781Z,35.40
2022-11-15T09:31:35.384Z,35.73
2022-11-15T09:34:23.679Z,34.27
2022-11-15T09:37:10.257Z,35.00
2022-11-15T09:39:56.882Z,36.23
2022-11-15T09:42:57.453Z,36.30
2022-11-15T09:45:53.574Z,37.13
2022-11-15T09:48:55.140Z,37.30
2022-11-15T09:51:48.024Z,37.77
2022-11-15T09:54:52.142Z,36.17
2022-11-15T09:57:20.477Z,37.33
2022-11-15T10:03:10.849Z,40.83
2022-11-15T10:05:42.275Z,39.67
2022-11-15T10:08:30.257Z,40.90
2022-11-15T10:11:30.611Z,39.27
2022-11-15T10:13:50.480Z,41.70
2022-11-15T10:16:37.919Z,42.03
2022-11-15T10:19:11.240Z,39.10
2022-11-15T10:21:46.209Z,39.60
2022-11-15T10:24:21.621Z,37.83
2022-11-15T10:26:52.501Z,39.03
2022-11-15T10:29:26.448Z,42.40
2022-11-15T10:31:55.371Z,38.87
2022-11-15T10:34:25.983Z,38.97
2022-11-15T10:36:58.072Z,38.97
2022-11-15T10:39:28.376Z,39.47
2022-11-15T10:41:56.875Z,39.80
2022-11-15T10:44:29.678Z,39.13
2022-11-15T10:47:26.808Z,41.17
2022-11-15T10:50:00.140Z,39.63
2022-11-15T10:52:29.230Z,40.70
2022-11-15T10:55:02.503Z,39.60
2022-11-15T10:57:32.361Z,40.43
2022-11-15T11:00:02.789Z,38.73
2022-11-15T11:02:33.545Z,40.87
2022-11-15T11:05:02.305Z,39.10
2022-11-15T11:07:32.773Z,41.07
2022-11-15T11:10:17.722Z,39.07
2022-11-15T11:12:54.517Z,39.77
2022-11-15T11:15:25.158Z,36.77
2022-11-15T11:18:16.343Z,38.07
2022-11-15T11:20:48.250Z,39.53
2022-11-15T11:23:28.341Z,38.13
2022-11-15T11:26:06.123Z,37.80
2022-11-15T11:28:42.121Z,40.10
2022-11-15T11:31:22.679Z,38.73
2022-11-15T11:33:59.669Z,37.33
2022-11-15T11:36:31.401Z,40.00
2022-11-15T11:39:07.046Z,37.43
2022-11-15T11:41:47.677Z,36.53
2022-11-15T11:44:27.591Z,36.20
2022-11-15T11:46:58.653Z,35.13
2022-11-15T11:49:32.898Z,40.97
2022-11-15T11:52:05.668Z,39.60
2022-11-15T11:54:39.558Z,39.60
2022-11-15T11:57:15.412Z,37.60
2022-11-15T11:59:46.130Z,35.87
2022-11-15T12:02:18.013Z,36.00
2022-11-15T12:04:53.084Z,33.50
2022-11-15T12:07:25.801Z,32.97
2022-11-15T12:09:57.595Z,34.50
2022-11-15T12:12:31.926Z,33.17
2022-11-15T12:15:03.067Z,34.03
2022-11-15T12:17:33.091Z,30.93
2022-11-15T12:20:02.144Z,31.03
2022-11-15T12:22:38.142Z,33.60
2022-11-15T12:25:09.785Z,34.00
2022-11-15T12:27:43.055Z,33.87
2022-11-15T12:30:14.157Z,34.77
2022-11-15T12:32:58.123Z,33.50
2022-11-15T12:35:29.796Z,33.23
2022-11-15T12:37:58.160Z,33.60
2022-11-15T12:40:28.600Z,33.20
2022-11-15T12:43:05.756Z,35.23
2022-11-15T12:45:35.720Z,35.57
2022-11-15T12:48:57.470Z,34.97
2022-11-15T12:51:58.699Z,33.00
2022-11-15T12:54:55.571Z,32.87
2022-11-15T12:57:43.681Z,34.33
2022-11-15T13:00:52.995Z,32.30
2022-11-15T13:03:31.389Z,31.63
2022-11-15T13:06:35.447Z,31.50
2022-11-15T13:09:03.642Z,31.70
2022-11-15T13:11:46.813Z,28.73
2022-11-15T13:14:44.361Z,30.70
2022-11-15T13:17:25.076Z,28.77
2022-11-15T13:19:58.178Z,30.93
2022-11-15T13:22:44.190Z,31.30
2022-11-15T13:25:21.343Z,29.90
2022-11-15T13:27:55.369Z,30.50
2022-11-15T13:30:24.789Z,32.50
2022-11-15T13:32:55.779Z,28.67
2022-11-15T13:35:25.786Z,30.97
2022-11-15T13:37:54.580Z,31.33
2022-11-15T13:40:25.740Z,32.97
2022-11-15T13:42:53.833Z,32.90
2022-11-15T13:45:22.144Z,32.87
2022-11-15T13:48:01.788Z,34.30
2022-11-15T13:50:34.457Z,32.23
2022-11-15T13:53:05.148Z,34.80
2022-11-15T13:55:34.534Z,34.10
2022-11-15T13:58:07.350Z,33.60
2022-11-15T14:00:38.883Z,32.20
2022-11-15T14:03:15.544Z,30.03
2022-11-15T14:05:44.016Z,29.90
2022-11-15T14:08:25.069Z,28.10
2022-11-15T14:11:09.727Z,30.57
2022-11-15T14:13:37.952Z,32.00
2022-11-15T14:16:17.586Z,31.90
2022-11-15T14:18:56.426Z,30.03
2022-11-15T14:21:24.456Z,29.10
2022-11-15T14:23:53.807Z,32.80
2022-11-15T14:26:30.537Z,31.27
2022-11-15T14:28:58.824Z,32.20
2022-11-15T14:31:27.070Z,31.47
2022-11-15T14:33:56.548Z,32.27
2022-11-15T14:36:24.599Z,33.20
2022-11-15T14:38:55.282Z,34.33
2022-11-15T14:41:24.921Z,35.23
2022-11-15T14:43:55.023Z,37.37
2022-11-15T14:46:23.113Z,37.30
2022-11-15T14:48:53.538Z,36.40
2022-11-15T14:51:22.957Z,38.43
2022-11-15T14:53:56.340Z,39.37
2022-11-15T14:56:24.782Z,39.60
2022-11-15T14:58:55.949Z,38.77
2022-11-15T15:01:26.301Z,39.57
2022-11-15T15:03:56.858Z,39.60
2022-11-15T15:06:26.797Z,41.10
2022-11-15T15:08:54.878Z,41.00
2022-11-15T15:11:24.934Z,39.20
2022-11-15T15:13:57.462Z,41.63
2022-11-15T15:16:25.765Z,40.50
2022-11-15T15:18:54.448Z,40.57
2022-11-15T15:21:24.378Z,40.47
2022-11-15T15:23:56.077Z,39.97
2022-11-15T15:26:24.679Z,36.80
2022-11-15T15:28:53.600Z,40.17
2022-11-15T15:31:21.782Z,38.20
2022-11-15T15:33:50.555Z,38.43
2022-11-15T15:36:20.379Z,37.90
2022-11-15T15:38:56.069Z,39.13
2022-11-15T15:41:25.727Z,36.57
2022-11-15T15:43:54.104Z,38.03
2022-11-15T15:46:22.368Z,36.73
2022-11-15T15:48:52.764Z,37.23
2022-11-15T15:51:21.115Z,37.17
2022-11-15T15:53:53.725Z,38.53
2022-11-15T15:56:21.802Z,38.73
2022-11-15T15:58:54.158Z,38.00
2022-11-15T16:01:22.991Z,40.13
2022-11-15T16:03:53.221Z,37.07
2022-11-15T16:06:40.301Z,37.27
2022-11-15T16:09:15.012Z,36.70
2022-11-15T16:11:44.379Z,35.93
2022-11-15T16:14:16.422Z,35.43
2022-11-15T16:16:44.786Z,37.87
2022-11-15T16:19:13.848Z,36.47
2022-11-15T16:21:42.501Z,38.37
2022-11-15T16:24:10.902Z,35.50
2022-11-15T16:26:39.672Z,36.70
2022-11-15T16:29:10.256Z,37.20
2022-11-15T16:31:40.021Z,36.13
2022-11-15T16:34:08.345Z,36.00
2022-11-15T16:36:37.285Z,35.97
2022-11-15T16:39:06.344Z,35.40
2022-11-15T16:41:34.914Z,34.40
2022-11-15T16:44:09.304Z,36.57
2022-11-15T16:46:40.666Z,34.27
2022-11-15T16:49:17.391Z,32.47
2022-11-15T16:51:47.415Z,31.40
2022-11-15T16:54:16.430Z,32.90
2022-11-15T16:56:48.227Z,31.73
2022-11-15T16:59:20.337Z,31.23
2022-11-15T17:01:57.979Z,31.27
2022-11-15T17:04:34.065Z,30.97
2022-11-15T17:07:02.534Z,31.90
2022-11-15T17:09:33.180Z,32.37
2022-11-15T17:12:03.776Z,32.03
2022-11-15T17:14:32.285Z,30.97
2022-11-15T17:17:01.047Z,30.70
2022-11-15T17:19:31.061Z,32.00
2022-11-15T17:22:00.006Z,31.80
2022-11-15T17:24:28.604Z,31.60
2022-11-15T17:26:59.719Z,32.20
2022-11-15T17:29:28.682Z,33.47
2022-11-15T17:31:58.651Z,31.70
2022-11-15T17:34:28.496Z,35.27
2022-11-15T17:37:00.473Z,33.33
2022-11-15T17:39:28.912Z,32.27
2022-11-15T17:42:01.430Z,32.30
2022-11-15T17:44:30.543Z,33.77
2022-11-15T17:47:01.814Z,35.50
2022-11-15T17:49:30.417Z,35.23
2022-11-15T17:52:02.133Z,34.27
2022-11-15T17:54:31.813Z,32.97
2022-11-15T17:57:02.855Z,35.77
2022-11-15T17:59:34.598Z,33.87
2022-11-15T18:02:03.744Z,34.13
2022-11-15T18:04:33.545Z,35.30
2022-11-15T18:07:03.559Z,35.30
2022-11-15T18:09:32.577Z,33.00
2022-11-15T18:12:01.592Z,31.70
2022-11-15T18:14:30.863Z,29.90
2022-11-15T18:16:59.491Z,31.40
2022-11-15T18:19:31.530Z,31.73
2022-11-15T18:22:01.481Z,31.30
2022-11-15T18:24:33.578Z,31.47
2022-11-15T18:27:07.421Z,31.83
2022-11-15T18:29:38.168Z,29.80
2022-11-15T18:32:15.625Z,30.53
2022-11-15T18:34:44.376Z,30.13
2022-11-15T18:37:13.452Z,30.80
2022-11-15T18:39:53.949Z,30.00
2022-11-15T18:42:26.002Z,30.17
2022-11-15T18:44:56.105Z,30.00
2022-11-15T18:47:24.729Z,30.30
2022-11-15T18:49:58.559Z,30.90
2022-11-15T18:52:28.084Z,31.10
2022-11-15T18:55:07.702Z,28.60
2022-11-15T18:57:36.649Z,31.37
2022-11-15T19:00:11.546Z,30.27
2022-11-15T19:02:40.776Z,31.37
2022-11-15T19:05:10.677Z,30.77
2022-11-15T19:07:41.759Z,27.67
2022-11-15T19:10:13.002Z,27.70
2022-11-15T19:12:41.937Z,25.30
2022-11-15T19:15:12.890Z,25.07
2022-11-15T19:17:44.090Z,26.60
2022-11-15T19:20:13.831Z,26.03
2022-11-15T19:22:46.195Z,23.27
2022-11-15T19:25:20.587Z,25.43
2022-11-15T19:27:56.235Z,24.50
2022-11-15T19:30:28.256Z,23.53
2022-11-15T19:32:56.877Z,22.20
2022-11-15T19:35:26.245Z,23.43
2022-11-15T19:37:55.930Z,23.63
2022-11-15T19:40:37.446Z,21.70
2022-11-15T19:43:08.617Z,22.23
2022-11-15T19:45:38.706Z,21.03
2022-11-15T19:48:08.168Z,22.10
2022-11-15T19:50:45.647Z,21.27
2022-11-15T19:53:15.952Z,22.23
2022-11-15T19:56:03.267Z,22.40
2022-11-15T19:58:45.089Z,21.70
2022-11-15T20:01:24.037Z,21.97
2022-11-15T20:03:57.696Z,22.93
2022-11-15T20:06:30.859Z,22.87
2022-11-15T20:09:02.950Z,22.43
2022-11-15T20:11:34.795Z,22.80
2022-11-15T20:14:05.850Z,22.93
2022-11-15T20:16:35.277Z,21.30
2022-11-15T20:19:04.094Z,24.60
2022-11-15T20:21:36.718Z,22.97
2022-11-15T20:24:06.074Z,23.70
2022-11-15T20:26:39.389Z,22.67
2022-11-15T20:29:10.163Z,23.60
2022-11-15T20:31:40.204Z,23.40
2022-11-15T20:34:10.929Z,23.90
2022-11-15T20:36:40.274Z,22.47
2022-11-15T20:39:10.500Z,24.97
2022-11-15T20:41:40.817Z,24.80
2022-11-15T20:44:11.671Z,24.70
2022-11-15T20:46:41.041Z,28.03
2022-11-15T20:49:12.708Z,28.30
2022-11-15T20:51:41.603Z,26.23
2022-11-15T20:54:11.277Z,26.20
2022-11-15T20:56:42.290Z,29.27
2022-11-15T20:59:16.284Z,27.83
2022-11-15T21:01:47.594Z,27.63
2022-11-15T21:04:18.350Z,28.47
2022-11-15T21:06:48.969Z,29.13
2022-11-15T21:09:39.744Z,29.50
2022-11-15T21:12:15.371Z,27.37
2022-11-15T21:14:46.623Z,29.10
2022-11-15T21:17:16.211Z,28.33
2022-11-15T21:19:45.534Z,28.83
2022-11-15T21:22:15.432Z,28.00
2022-11-15T21:24:43.612Z,29.27
2022-11-15T21:27:16.226Z,28.07
2022-11-15T21:29:45.742Z,28.57
2022-11-15T21:32:14.011Z,28.37
2022-11-15T21:34:42.321Z,28.07
2022-11-15T21:37:12.367Z,26.10
2022-11-15T21:39:40.616Z,24.70
2022-11-15T21:42:11.900Z,25.27
2022-11-15T21:44:41.336Z,25.20
2022-11-15T21:47:10.313Z,24.47
2022-11-15T21:49:38.371Z,26.60
2022-11-15T21:52:07.327Z,23.70
2022-11-15T21:54:35.385Z,25.57
2022-11-15T21:57:04.452Z,25.53
2022-11-15T21:59:32.546Z,24.40
2022-11-15T22:02:15.241Z,24.00
2022-11-15T22:04:46.610Z,22.97
2022-11-15T22:07:14.812Z,24.80
2022-11-15T22:09:44.670Z,23.60
2022-11-15T22:12:15.429Z,24.53
2022-11-15T22:14:43.635Z,22.87
2022-11-15T22:17:16.042Z,22.77
2022-11-15T22:19:52.621Z,23.60
2022-11-15T22:22:21.480Z,24.40
2022-11-15T22:24:52.793Z,24.30
2022-11-15T22:27:23.615Z,23.97
2022-11-15T22:29:53.292Z,22.73
2022-11-15T22:32:23.924Z,25.57
2022-11-15T22:34:55.260Z,22.97
2022-11-15T22:37:24.438Z,22.33
2022-11-15T22:39:53.667Z,23.20
2022-11-15T22:42:23.928Z,23.63
2022-11-15T22:44:52.991Z,23.00
2022-11-15T22:47:23.711Z,22.90
2022-11-15T22:49:57.524Z,24.23
2022-11-15T22:52:26.946Z,24.63
2022-11-15T22:54:55.000Z,21.67
2022-11-15T22:57:25.658Z,22.80
2022-11-15T22:59:55.137Z,23.27
2022-11-15T23:02:23.420Z,23.33
2022-11-15T23:04:54.226Z,21.83
2022-11-15T23:07:26.826Z,23.43
2022-11-15T23:10:15.525Z,24.90
2022-11-15T23:13:01.361Z,24.60
2022-11-15T23:15:55.333Z,24.00
2022-11-15T23:18:23.822Z,22.60
2022-11-15T23:20:53.386Z,23.70
2022-11-15T23:23:24.424Z,25.33
2022-11-15T23:25:59.481Z,23.03
2022-11-15T23:28:30.076Z,24.70
2022-11-15T23:31:21.400Z,24.23
2022-11-15T23:33:58.592Z,24.07
2022-11-15T23:36:27.022Z,23.07
2022-11-15T23:38:56.939Z,22.57
2022-11-15T23:41:26.341Z,24.10
2022-11-15T23:43:57.256Z,23.80
2022-11-15T23:46:27.215Z,23.50
2022-11-15T23:48:58.073Z,24.63
2022-11-15T23:51:26.560Z,24.10
2022-11-15T23:53:56.036Z,24.93
2022-11-15T23:56:25.610Z,25.00
2022-11-15T23:58:56.786Z,25.87
